Time;durP1;ratioP1;P1;durP2;ratioP2;P2;SDS_P1;SDS_P2;PMS_P1;PMS_P2;Temp;Humidity;BMP_temperature;BMP_pressure;BME280_temperature;BME280_humidity;BME280_pressure;Samples;Min_cycle;Max_cycle;Signal;HPM_P1;HPM_P2
2022/05/12 00:02:14;;;;;;;3.57;2.20;;;24.70;79.20;;;;;;4970296;28;20855;-70
2022/05/12 00:04:44;;;;;;;2.00;1.80;;;24.70;79.40;;;;;;4969599;28;20439;-70
2022/05/12 00:07:13;;;;;;;3.53;2.53;;;24.70;79.50;;;;;;4938348;29;20428;-70
2022/05/12 00:09:43;;;;;;;5.97;2.10;;;24.60;79.20;;;;;;4970019;28;20498;-70
2022/05/12 00:12:12;;;;;;;3.80;2.40;;;24.60;79.40;;;;;;4969485;28;20550;-70
2022/05/12 00:14:40;;;;;;;2.20;1.70;;;24.60;79.80;;;;;;4955202;29;20461;-70
2022/05/12 00:17:08;;;;;;;5.43;2.43;;;24.60;79.90;;;;;;4955335;29;20395;-70
2022/05/12 00:19:37;;;;;;;3.53;2.23;;;24.50;79.50;;;;;;4953974;29;20983;-70
2022/05/12 00:22:03;;;;;;;4.10;2.60;;;24.50;79.30;;;;;;4937996;29;20539;-70
2022/05/12 00:24:29;;;;;;;5.73;2.27;;;24.50;79.50;;;;;;4954622;29;20486;-70
2022/05/12 00:26:57;;;;;;;4.20;1.87;;;24.50;79.60;;;;;;4955243;29;20413;-70
2022/05/12 00:29:26;;;;;;;3.07;2.10;;;24.50;80.00;;;;;;4953665;29;20454;-70
2022/05/12 00:31:55;;;;;;;3.20;1.70;;;24.50;80.00;;;;;;4969819;28;20414;-70
2022/05/12 00:34:25;;;;;;;3.57;2.10;;;24.40;79.70;;;;;;4969392;28;20454;-70
2022/05/12 00:36:51;;;;;;;2.90;2.17;;;24.40;79.60;;;;;;4954542;29;20458;-70
2022/05/12 00:39:20;;;;;;;2.80;2.00;;;24.40;79.60;;;;;;4953669;29;20809;-70
2022/05/12 00:41:46;;;;;;;4.50;2.17;;;24.40;79.60;;;;;;4937715;29;20804;-70
2022/05/12 00:44:16;;;;;;;2.80;2.23;;;24.40;79.70;;;;;;4953640;29;20458;-70
2022/05/12 00:46:49;;;;;;;3.70;1.90;;;24.40;79.80;;;;;;4953416;29;20407;-70
2022/05/12 00:49:26;;;;;;;4.00;2.10;;;24.40;80.10;;;;;;4937204;29;20443;-70
2022/05/12 00:51:55;;;;;;;2.50;2.07;;;24.40;80.20;;;;;;4937408;29;20422;-70
2022/05/12 00:54:23;;;;;;;4.30;2.33;;;24.30;80.60;;;;;;4937485;29;20470;-70
2022/05/12 00:56:50;;;;;;;2.63;1.83;;;24.30;80.70;;;;;;4954603;29;20446;-70
2022/05/12 00:59:29;;;;;;;2.50;1.93;;;24.30;80.70;;;;;;4969369;28;20505;-70
2022/05/12 01:01:59;;;;;;;3.00;1.97;;;24.20;80.90;;;;;;4937280;29;20459;-70
2022/05/12 01:04:29;;;;;;;4.73;2.10;;;24.20;81.00;;;;;;4921408;28;20808;-70
2022/05/12 01:06:58;;;;;;;3.67;2.03;;;24.20;81.10;;;;;;4936745;29;20779;-70
2022/05/12 01:09:27;;;;;;;6.57;2.20;;;24.20;81.00;;;;;;4969050;28;20537;-71
2022/05/12 01:11:57;;;;;;;3.10;2.13;;;24.20;81.10;;;;;;4969323;28;20522;-70
2022/05/12 01:14:28;;;;;;;3.10;2.20;;;24.20;80.90;;;;;;4936826;29;20466;-70
2022/05/12 01:16:57;;;;;;;5.37;2.70;;;24.10;80.80;;;;;;4954193;29;20786;-70
2022/05/12 01:19:29;;;;;;;4.23;2.00;;;24.10;80.90;;;;;;4954093;29;20813;-70
2022/05/12 01:21:59;;;;;;;3.77;2.03;;;24.10;80.90;;;;;;4968917;28;20414;-70
2022/05/12 01:24:35;;;;;;;4.03;1.80;;;24.10;80.80;;;;;;4937271;29;20423;-68
2022/05/12 01:27:19;;;;;;;4.20;2.20;;;24.00;80.70;;;;;;4936814;29;20450;-71
2022/05/12 01:29:51;;;;;;;4.43;2.07;;;24.00;80.80;;;;;;4936906;29;20809;-70
2022/05/12 01:32:20;;;;;;;2.60;2.00;;;24.00;80.90;;;;;;4953902;29;20399;-70
2022/05/12 01:34:45;;;;;;;3.03;1.73;;;24.00;80.90;;;;;;4953730;29;20451;-70
2022/05/12 01:37:14;;;;;;;3.40;1.63;;;24.00;80.90;;;;;;4953615;29;20489;-70
2022/05/12 01:39:40;;;;;;;4.90;2.40;;;23.90;80.70;;;;;;4953789;29;20435;-70
2022/05/12 01:42:10;;;;;;;3.00;1.90;;;23.90;80.70;;;;;;4953504;29;20404;-70
2022/05/12 01:44:40;;;;;;;6.57;2.17;;;23.90;80.80;;;;;;4968701;28;20505;-70
2022/05/12 01:47:11;;;;;;;4.17;2.17;;;23.80;80.60;;;;;;4936311;29;20562;-70
2022/05/12 01:49:37;;;;;;;2.20;1.80;;;23.80;80.60;;;;;;4920826;29;20530;-70
2022/05/12 01:52:05;;;;;;;4.13;2.10;;;23.80;80.60;;;;;;4952229;29;20502;-71
2022/05/12 01:54:34;;;;;;;2.40;1.60;;;23.80;80.70;;;;;;4936911;29;20495;-70
2022/05/12 01:57:00;;;;;;;4.67;1.80;;;23.80;80.70;;;;;;4968463;28;20478;-70
2022/05/12 01:59:26;;;;;;;4.23;1.90;;;23.70;80.50;;;;;;4951973;29;20455;-70
2022/05/12 02:01:56;;;;;;;3.00;2.00;;;23.80;80.70;;;;;;4968375;28;21032;-70
2022/05/12 02:04:24;;;;;;;2.13;1.93;;;23.70;80.60;;;;;;4953071;29;20419;-70
2022/05/12 02:06:50;;;;;;;2.40;2.00;;;23.70;80.60;;;;;;4936526;29;20407;-70
2022/05/12 02:09:16;;;;;;;4.30;2.47;;;23.70;80.60;;;;;;4920044;29;20254;-71
2022/05/12 02:11:42;;;;;;;2.80;1.83;;;23.70;80.60;;;;;;4936530;29;20446;-70
2022/05/12 02:14:10;;;;;;;4.97;2.30;;;23.60;80.40;;;;;;4951906;29;20403;-70
2022/05/12 02:16:37;;;;;;;4.70;2.10;;;23.60;80.40;;;;;;4953441;28;20439;-70
2022/05/12 02:19:05;;;;;;;3.73;2.00;;;23.60;80.50;;;;;;4924116;29;20512;-70
2022/05/12 02:21:34;;;;;;;4.30;2.00;;;23.50;80.40;;;;;;4939672;29;20865;-70
2022/05/12 02:24:03;;;;;;;4.60;1.97;;;23.50;80.30;;;;;;4909303;29;20447;-70
2022/05/12 02:26:34;;;;;;;3.00;2.30;;;23.50;80.30;;;;;;4957300;29;20501;-70
2022/05/12 02:29:03;;;;;;;3.43;2.07;;;23.50;80.30;;;;;;4957122;29;20489;-70
2022/05/12 02:31:32;;;;;;;2.67;2.43;;;23.40;80.30;;;;;;4939922;29;20478;-70
2022/05/12 02:34:03;;;;;;;3.37;2.10;;;23.40;80.30;;;;;;4923582;29;20450;-70
2022/05/12 02:36:28;;;;;;;3.30;1.77;;;23.40;80.30;;;;;;4939580;29;20452;-70
2022/05/12 02:38:55;;;;;;;2.17;1.40;;;23.40;80.20;;;;;;4971954;28;20458;-70
2022/05/12 02:41:20;;;;;;;2.60;2.07;;;23.30;80.10;;;;;;4957185;29;20434;-70
2022/05/12 02:43:49;;;;;;;2.93;1.57;;;23.30;80.10;;;;;;4955845;29;20475;-70
2022/05/12 02:46:18;;;;;;;1.90;1.63;;;23.30;80.90;;;;;;4956904;29;20199;-70
2022/05/12 02:48:46;;;;;;;2.20;1.57;;;23.30;80.10;;;;;;4940156;29;20446;-70
2022/05/12 02:51:16;;;;;;;4.17;1.70;;;23.30;80.10;;;;;;4939555;29;20442;-70
2022/05/12 02:53:45;;;;;;;2.03;1.70;;;23.20;80.00;;;;;;4939931;29;20770;-70
2022/05/12 02:56:11;;;;;;;5.37;1.97;;;23.20;80.00;;;;;;4955455;29;20455;-70
2022/05/12 02:58:39;;;;;;;4.07;2.00;;;23.20;80.00;;;;;;4956772;29;20450;-70
2022/05/12 03:01:05;;;;;;;3.33;1.70;;;23.20;80.00;;;;;;4956655;29;20406;-70
2022/05/12 03:03:31;;;;;;;3.70;2.37;;;23.10;79.90;;;;;;4956676;29;20453;-70
2022/05/12 03:05:57;;;;;;;3.20;1.93;;;23.10;79.90;;;;;;4956777;29;20419;-70
2022/05/12 03:08:23;;;;;;;3.90;2.17;;;23.10;79.90;;;;;;4939127;29;20503;-70
2022/05/12 03:10:52;;;;;;;5.53;1.73;;;23.10;79.90;;;;;;4956587;29;20180;-71
2022/05/12 03:13:20;;;;;;;3.40;1.67;;;23.10;79.90;;;;;;4939546;29;20466;-70
2022/05/12 03:15:48;;;;;;;2.43;1.33;;;23.00;79.80;;;;;;4939167;29;20467;-70
2022/05/12 03:18:17;;;;;;;4.07;1.73;;;23.00;79.80;;;;;;4956422;29;20442;-70
2022/05/12 03:20:45;;;;;;;3.00;1.90;;;23.00;80.60;;;;;;4970682;28;20430;-70
2022/05/12 03:23:14;;;;;;;3.80;2.30;;;23.00;79.80;;;;;;4971225;28;20964;-70
2022/05/12 03:25:41;;;;;;;2.87;1.60;;;22.90;79.70;;;;;;4938676;29;20494;-70
2022/05/12 03:28:09;;;;;;;2.67;2.10;;;22.90;79.70;;;;;;4955281;28;20450;-70
2022/05/12 03:30:35;;;;;;;2.30;1.83;;;22.90;79.70;;;;;;4955629;29;20409;-70
2022/05/12 03:33:01;;;;;;;5.23;1.97;;;22.90;79.70;;;;;;4938792;29;20791;-70
2022/05/12 03:35:29;;;;;;;3.53;1.73;;;22.80;79.60;;;;;;4970828;28;20458;-70
2022/05/12 03:37:58;;;;;;;1.93;1.63;;;22.80;79.60;;;;;;4938831;29;20470;-70
2022/05/12 03:40:26;;;;;;;2.00;1.70;;;22.80;79.60;;;;;;4938744;29;20414;-70
2022/05/12 03:42:58;;;;;;;2.20;1.53;;;22.70;79.40;;;;;;4955973;29;20407;-70
2022/05/12 03:45:27;;;;;;;2.03;1.57;;;22.70;79.40;;;;;;4956062;29;20446;-70
2022/05/12 03:47:55;;;;;;;2.47;1.60;;;22.70;79.40;;;;;;4922994;29;20427;-70
2022/05/12 03:50:28;;;;;;;2.77;1.90;;;22.70;79.40;;;;;;4938870;29;20423;-70
2022/05/12 03:52:55;;;;;;;2.73;1.60;;;22.60;79.30;;;;;;4955790;29;20445;-69
2022/05/12 03:55:26;;;;;;;2.43;1.73;;;22.60;79.30;;;;;;4970323;28;20550;-70
2022/05/12 03:57:58;;;;;;;4.27;1.73;;;22.60;79.30;;;;;;4970765;28;21005;-70
2022/05/12 04:00:29;;;;;;;2.80;1.80;;;22.60;79.30;;;;;;4956080;29;20962;-70
2022/05/12 04:02:59;;;;;;;3.40;1.90;;;22.50;79.30;;;;;;4970386;28;20941;-70
2022/05/12 04:05:31;;;;;;;3.03;1.60;;;22.50;79.30;;;;;;4970634;28;20433;-70
2022/05/12 04:07:58;;;;;;;3.77;1.77;;;22.50;79.30;;;;;;4955460;29;20435;-70
2022/05/12 04:10:27;;;;;;;4.00;2.30;;;22.50;79.40;;;;;;4970767;28;20494;-70
2022/05/12 04:12:56;;;;;;;2.27;1.90;;;22.50;79.40;;;;;;4938616;29;21073;-70
2022/05/12 04:15:22;;;;;;;4.40;2.00;;;22.40;79.30;;;;;;4955495;29;20494;-70
2022/05/12 04:18:02;;;;;;;3.73;1.90;;;22.40;79.30;;;;;;4955169;29;20964;-70
2022/05/12 04:20:31;;;;;;;2.60;2.00;;;22.40;79.40;;;;;;4954792;28;20423;-70
2022/05/12 04:22:59;;;;;;;6.90;1.73;;;22.40;79.40;;;;;;4938478;29;20840;-70
2022/05/12 04:25:28;;;;;;;2.00;1.80;;;22.30;79.30;;;;;;4938530;29;20787;-70
2022/05/12 04:27:59;;;;;;;2.87;1.73;;;22.30;79.30;;;;;;4955125;29;20431;-70
2022/05/12 04:30:26;;;;;;;2.33;1.67;;;22.30;79.30;;;;;;4954940;29;20444;-70
2022/05/12 04:35:09;;;;;;;3.37;1.90;;;22.30;79.30;;;;;;4955129;29;20416;-70
2022/05/12 04:35:42;;;;;;;2.67;2.30;;;22.30;79.30;;;;;;4938279;29;20473;-70
2022/05/12 04:38:09;;;;;;;2.73;2.00;;;22.20;79.30;;;;;;4955029;29;20524;-70
2022/05/12 04:40:37;;;;;;;2.00;1.80;;;22.20;79.30;;;;;;4954893;28;20410;-70
2022/05/12 04:43:03;;;;;;;2.17;1.73;;;22.20;79.30;;;;;;4937746;29;20848;-70
2022/05/12 04:45:31;;;;;;;3.73;1.80;;;22.20;79.50;;;;;;4938171;29;20532;-70
2022/05/12 04:47:57;;;;;;;3.47;1.90;;;22.20;79.40;;;;;;4937877;29;20952;-70
2022/05/12 04:50:27;;;;;;;3.60;1.90;;;22.10;79.30;;;;;;4953780;29;20757;-69
2022/05/12 04:52:55;;;;;;;2.70;1.83;;;22.10;79.40;;;;;;4969444;28;20391;-69
2022/05/12 04:55:24;;;;;;;3.27;1.83;;;22.10;79.40;;;;;;4954479;29;20970;-69
2022/05/12 04:57:53;;;;;;;3.63;1.70;;;22.10;79.40;;;;;;4954560;29;20491;-69
2022/05/12 05:00:27;;;;;;;2.83;1.80;;;22.00;80.20;;;;;;4937550;29;20401;-68
2022/05/12 05:02:56;;;;;;;2.67;1.90;;;22.00;79.40;;;;;;4937595;29;20498;-69
2022/05/12 05:05:24;;;;;;;2.87;1.97;;;22.00;79.40;;;;;;4953128;29;20430;-69
2022/05/12 05:07:55;;;;;;;3.00;1.73;;;22.00;79.50;;;;;;4954038;28;20461;-69
2022/05/12 05:10:22;;;;;;;3.40;1.90;;;22.00;79.60;;;;;;4954333;29;20419;-69
2022/05/12 05:12:48;;;;;;;1.87;1.77;;;22.00;79.60;;;;;;4937216;29;20927;-69
2022/05/12 05:15:17;;;;;;;3.70;2.20;;;22.00;79.70;;;;;;4954416;29;20450;-69
2022/05/12 05:17:45;;;;;;;3.80;1.90;;;21.90;79.60;;;;;;4937551;29;20414;-69
2022/05/12 05:20:17;;;;;;;2.10;1.80;;;21.90;79.70;;;;;;4953331;29;20537;-69
2022/05/12 05:22:49;;;;;;;3.53;2.00;;;21.90;79.70;;;;;;4936823;29;20469;-69
2022/05/12 05:25:23;;;;;;;2.60;1.63;;;21.90;79.80;;;;;;4968863;28;20438;-69
2022/05/12 05:27:54;;;;;;;3.10;1.97;;;21.90;79.90;;;;;;4954174;29;20839;-69
2022/05/12 05:30:22;;;;;;;2.90;2.00;;;21.80;79.90;;;;;;4936352;29;20476;-69
2022/05/12 05:32:51;;;;;;;1.70;1.40;;;21.80;79.90;;;;;;4936925;29;21005;-69
2022/05/12 05:35:20;;;;;;;2.00;1.80;;;21.80;80.00;;;;;;4936878;29;20461;-69
2022/05/12 05:37:52;;;;;;;2.07;1.47;;;21.80;80.00;;;;;;4954097;29;20943;-68
2022/05/12 05:40:25;;;;;;;3.13;1.97;;;21.80;80.10;;;;;;4954177;29;20805;-69
2022/05/12 05:42:55;;;;;;;2.40;1.77;;;21.70;80.00;;;;;;4968930;28;20922;-69
2022/05/12 05:45:21;;;;;;;3.93;1.93;;;21.70;79.90;;;;;;4953725;29;20417;-69
2022/05/12 05:47:57;;;;;;;2.80;1.50;;;21.70;79.90;;;;;;4953867;29;20407;-69
2022/05/12 05:50:27;;;;;;;3.17;1.80;;;21.70;79.90;;;;;;4936504;28;20425;-68
2022/05/12 05:55:42;;;;;;;3.20;1.80;;;21.70;80.90;;;;;;4953819;29;20458;-69
2022/05/12 05:58:09;;;;;;;1.80;1.70;;;21.70;80.10;;;;;;4920952;29;20438;-69
2022/05/12 06:00:37;;;;;;;4.37;2.03;;;21.60;80.00;;;;;;4936791;29;20430;-69
2022/05/12 06:03:03;;;;;;;4.43;1.97;;;21.60;80.10;;;;;;4953926;29;20421;-69
2022/05/12 06:05:31;;;;;;;5.40;2.30;;;21.60;80.10;;;;;;4936791;29;20426;-69
2022/05/12 06:07:57;;;;;;;2.40;2.00;;;21.60;80.20;;;;;;4936040;29;20457;-69
2022/05/12 06:10:26;;;;;;;5.27;2.20;;;21.60;80.30;;;;;;4952420;29;20493;-68
2022/05/12 06:12:57;;;;;;;7.23;2.13;;;21.60;80.50;;;;;;4953673;28;20485;-68
2022/05/12 06:15:25;;;;;;;3.03;2.00;;;21.50;80.30;;;;;;4952592;29;20469;-69
2022/05/12 06:17:51;;;;;;;2.73;1.93;;;21.50;80.30;;;;;;4952533;29;20442;-69
2022/05/12 06:20:17;;;;;;;5.83;2.30;;;21.50;80.30;;;;;;4953550;29;20407;-69
2022/05/12 06:22:44;;;;;;;2.90;1.80;;;21.50;80.30;;;;;;4952527;29;20448;-69
2022/05/12 06:25:11;;;;;;;4.23;2.13;;;21.50;80.30;;;;;;4968363;28;20910;-69
2022/05/12 06:27:40;;;;;;;3.60;1.97;;;21.40;80.30;;;;;;4945173;29;20520;-68
2022/05/12 06:30:07;;;;;;;4.30;2.00;;;21.40;80.30;;;;;;4936634;29;20448;-69
2022/05/12 06:32:35;;;;;;;5.60;2.60;;;21.40;80.50;;;;;;4953675;29;20927;-69
2022/05/12 06:35:01;;;;;;;2.60;1.73;;;21.40;80.70;;;;;;4953531;29;20454;-69
2022/05/12 06:37:30;;;;;;;3.20;2.00;;;21.40;80.70;;;;;;4952269;29;20438;-68
2022/05/12 06:40:00;;;;;;;4.10;2.50;;;21.40;80.50;;;;;;4935910;29;20541;-68
2022/05/12 06:42:26;;;;;;;10.43;2.87;;;21.30;80.30;;;;;;4935880;29;20452;-69
2022/05/12 06:44:56;;;;;;;4.50;2.60;;;21.30;80.40;;;;;;4952393;29;20921;-69
2022/05/12 06:47:25;;;;;;;5.40;3.40;;;21.30;80.60;;;;;;4936447;29;20480;-68
2022/05/12 06:49:52;;;;;;;4.60;2.60;;;21.30;80.70;;;;;;4968312;28;20495;-68
2022/05/12 06:52:20;;;;;;;3.13;2.10;;;21.30;80.70;;;;;;4951953;29;20430;-69
2022/05/12 06:54:48;;;;;;;4.33;2.87;;;21.30;80.60;;;;;;4936223;29;20946;-69
2022/05/12 06:57:22;;;;;;;5.53;2.83;;;21.20;81.30;;;;;;4953331;29;20451;-69
2022/05/12 06:59:49;;;;;;;3.50;2.13;;;21.20;81.30;;;;;;4952134;29;20540;-69
2022/05/12 07:02:15;;;;;;;4.87;3.10;;;21.20;80.40;;;;;;4936332;29;20414;-69
2022/05/12 07:04:45;;;;;;;5.83;2.83;;;21.20;80.50;;;;;;4956343;28;20401;-68
2022/05/12 07:07:14;;;;;;;4.37;3.20;;;21.20;80.50;;;;;;4955762;29;20812;-69
2022/05/12 07:09:40;;;;;;;4.47;2.97;;;21.20;80.50;;;;;;4939646;29;20513;-69
2022/05/12 07:12:06;;;;;;;6.77;2.20;;;21.20;80.50;;;;;;4955519;29;20932;-67
2022/05/12 07:14:34;;;;;;;4.27;2.30;;;21.20;80.50;;;;;;4952204;29;20489;-67
2022/05/12 07:17:03;;;;;;;7.87;2.77;;;21.20;80.50;;;;;;4955921;29;20930;-68
2022/05/12 07:19:33;;;;;;;5.73;2.60;;;21.20;80.50;;;;;;4939319;29;20438;-67
2022/05/12 07:27:34;;;;;;;5.33;2.73;;;21.20;80.20;;;;;;4956086;29;20472;-67
2022/05/12 07:30:00;;;;;;;6.43;2.70;;;21.20;80.20;;;;;;4935736;29;20467;-68
2022/05/12 07:32:26;;;;;;;4.13;2.73;;;21.20;80.20;;;;;;4936123;29;20843;-68
2022/05/12 07:34:55;;;;;;;5.07;2.80;;;21.20;80.30;;;;;;4937150;29;20207;-68
2022/05/12 07:37:24;;;;;;;4.00;2.70;;;21.20;80.30;;;;;;4937179;29;20443;-68
2022/05/12 07:39:52;;;;;;;6.10;3.57;;;21.20;80.30;;;;;;4935560;29;20594;-68
2022/05/12 07:42:20;;;;;;;3.97;2.97;;;21.20;80.30;;;;;;4935634;29;20459;-68
2022/05/12 07:44:49;;;;;;;4.23;2.50;;;21.20;80.30;;;;;;4937281;29;20913;-67
2022/05/12 07:47:19;;;;;;;5.37;3.10;;;21.20;80.20;;;;;;4951786;29;20414;-68
2022/05/12 07:49:48;;;;;;;3.13;2.70;;;21.20;80.20;;;;;;4947151;29;20444;-68
2022/05/12 07:52:15;;;;;;;4.13;3.00;;;21.20;80.20;;;;;;4955698;29;20436;-68
2022/05/12 07:54:41;;;;;;;4.37;3.10;;;21.20;80.10;;;;;;4970546;28;20462;-67
2022/05/12 07:57:10;;;;;;;5.40;2.73;;;21.20;80.10;;;;;;4955881;29;20410;-68
2022/05/12 07:59:37;;;;;;;3.10;2.27;;;21.20;80.10;;;;;;4955247;28;20484;-68
2022/05/12 08:02:06;;;;;;;2.80;2.50;;;21.20;80.10;;;;;;4938767;29;20804;-68
2022/05/12 08:04:37;;;;;;;7.20;3.27;;;21.20;79.90;;;;;;4955379;29;20430;-67
2022/05/12 08:07:03;;;;;;;4.97;2.80;;;21.20;79.90;;;;;;4955644;29;20407;-67
2022/05/12 08:09:31;;;;;;;2.97;2.60;;;21.20;79.90;;;;;;4954713;29;20462;-68
2022/05/12 08:11:58;;;;;;;4.83;3.20;;;21.20;79.90;;;;;;4956140;29;20797;-68
2022/05/12 08:14:24;;;;;;;4.60;2.60;;;21.20;79.80;;;;;;4937719;29;20406;-68
2022/05/12 08:16:50;;;;;;;6.23;3.07;;;21.10;79.60;;;;;;4954293;29;20485;-68
2022/05/12 08:19:15;;;;;;;6.53;3.20;;;21.20;79.70;;;;;;4954685;29;20437;-67
2022/05/12 08:21:42;;;;;;;3.20;2.80;;;21.20;79.70;;;;;;4953910;29;20890;-67
2022/05/12 08:24:10;;;;;;;6.73;2.67;;;21.20;79.70;;;;;;4950582;29;20425;-67
2022/05/12 08:26:39;;;;;;;4.00;2.80;;;21.20;79.70;;;;;;4938354;29;20462;-68
2022/05/12 08:29:05;;;;;;;5.10;2.40;;;21.20;79.60;;;;;;4937266;29;20473;-68
2022/05/12 08:31:33;;;;;;;6.83;2.80;;;21.20;79.60;;;;;;4936960;29;20450;-68
2022/05/12 08:34:01;;;;;;;4.27;2.40;;;21.20;79.50;;;;;;4936101;29;20955;-67
2022/05/12 08:36:28;;;;;;;3.10;2.80;;;21.20;79.60;;;;;;4937318;29;20469;-67
2022/05/12 08:38:54;;;;;;;4.30;3.07;;;21.20;79.60;;;;;;4955149;29;20895;-68
2022/05/12 08:41:30;;;;;;;5.63;2.97;;;21.20;79.60;;;;;;4954623;29;20492;-68
2022/05/12 08:43:56;;;;;;;3.33;3.00;;;21.20;79.60;;;;;;4954747;29;20453;-67
2022/05/12 08:46:45;;;;;;;7.43;3.60;;;21.20;79.60;;;;;;4950650;29;20788;-68
2022/05/12 08:49:23;;;;;;;4.53;3.10;;;21.20;79.50;;;;;;4934308;29;20458;-68
2022/05/12 08:52:20;;;;;;;4.90;3.10;;;21.20;79.40;;;;;;4966255;28;20840;-67
2022/05/12 08:54:58;;;;;;;4.43;4.03;;;21.20;79.40;;;;;;4940388;29;20819;-68
2022/05/12 08:57:36;;;;;;;8.70;3.63;;;21.20;79.40;;;;;;4937314;29;20490;-67
2022/05/12 09:00:06;;;;;;;4.60;3.60;;;21.20;79.40;;;;;;4952240;29;20462;-68
2022/05/12 09:02:35;;;;;;;5.60;3.77;;;21.30;79.50;;;;;;4953309;29;20440;-67
2022/05/12 09:05:21;;;;;;;3.80;3.40;;;21.30;79.50;;;;;;4947647;29;20431;-69
2022/05/12 09:08:16;;;;;;;4.47;3.57;;;21.30;79.30;;;;;;4948365;29;20549;-66
2022/05/12 09:11:03;;;;;;;3.43;2.80;;;21.20;79.20;;;;;;4934432;29;20497;-67
2022/05/12 09:13:42;;;;;;;3.97;3.00;;;21.30;79.30;;;;;;4968926;28;20974;-67
2022/05/12 09:16:16;;;;;;;3.57;3.27;;;21.30;79.30;;;;;;4949427;29;20807;-66
2022/05/12 09:18:43;;;;;;;5.50;3.57;;;21.30;79.30;;;;;;4953040;29;20449;-67
2022/05/12 09:21:16;;;;;;;4.20;3.40;;;21.30;79.30;;;;;;4949472;29;20813;-67
2022/05/12 09:23:46;;;;;;;4.80;3.70;;;21.30;79.30;;;;;;4954021;29;20575;-67
2022/05/12 09:26:39;;;;;;;4.00;3.30;;;21.30;79.20;;;;;;4954103;28;20504;-66
2022/05/12 09:29:23;;;;;;;5.03;4.40;;;21.30;79.30;;;;;;4933714;29;20842;-67
2022/05/12 09:32:04;;;;;;;5.20;3.47;;;21.30;79.30;;;;;;4938852;29;20817;-67
2022/05/12 09:34:36;;;;;;;6.00;3.10;;;21.40;79.50;;;;;;4953812;29;20429;-67
2022/05/12 09:37:26;;;;;;;3.80;3.20;;;21.40;79.40;;;;;;4936897;29;20452;-67
2022/05/12 09:39:58;;;;;;;5.40;4.07;;;21.40;79.40;;;;;;4954160;28;20779;-66
2022/05/12 09:42:27;;;;;;;4.10;3.70;;;21.40;79.30;;;;;;4936760;29;20915;-67
2022/05/12 09:45:09;;;;;;;3.97;3.63;;;21.40;79.20;;;;;;4953052;29;20438;-67
2022/05/12 09:47:35;;;;;;;4.03;3.20;;;21.40;78.90;;;;;;4949403;29;20469;-66
2022/05/12 09:50:21;;;;;;;3.57;3.27;;;21.40;78.80;;;;;;4933535;29;20447;-67
2022/05/12 09:53:01;;;;;;;4.13;3.60;;;21.50;78.90;;;;;;4934764;29;20423;-67
2022/05/12 09:55:39;;;;;;;3.60;3.27;;;21.50;78.80;;;;;;4965311;28;20458;-66
2022/05/12 09:58:17;;;;;;;4.37;2.83;;;21.50;78.80;;;;;;4934685;29;20403;-66
2022/05/12 10:00:48;;;;;;;3.77;3.00;;;21.50;78.80;;;;;;4964202;28;20785;-67
2022/05/12 10:09:09;;;;;;;3.70;3.10;;;21.60;78.40;;;;;;4953400;29;20870;-66
2022/05/12 10:11:58;;;;;;;4.53;3.20;;;21.60;78.40;;;;;;4956969;28;20954;-67
2022/05/12 10:14:32;;;;;;;4.53;2.70;;;21.60;78.20;;;;;;4945857;28;20437;-66
2022/05/12 10:17:02;;;;;;;3.27;2.90;;;21.60;78.10;;;;;;4953181;29;20489;-67
2022/05/12 10:19:31;;;;;;;4.83;3.30;;;21.60;77.90;;;;;;4953421;29;21021;-67
2022/05/12 10:22:17;;;;;;;3.37;3.07;;;21.60;77.40;;;;;;4953372;29;20426;-67
2022/05/12 10:24:57;;;;;;;3.80;3.40;;;21.70;76.70;;;;;;4938091;29;20454;-66
2022/05/12 10:27:37;;;;;;;3.53;2.73;;;21.60;76.50;;;;;;4934228;29;20434;-66
2022/05/12 10:30:15;;;;;;;5.63;3.53;;;21.70;76.50;;;;;;4934186;29;20496;-67
2022/05/12 10:33:11;;;;;;;3.47;3.17;;;21.70;76.50;;;;;;4917049;29;20433;-65
2022/05/12 10:35:54;;;;;;;3.93;2.97;;;21.70;76.50;;;;;;4952060;29;20496;-67
2022/05/12 10:38:46;;;;;;;3.47;3.00;;;21.70;76.50;;;;;;4963282;28;20438;-67
2022/05/12 10:41:20;;;;;;;4.63;3.10;;;21.80;76.40;;;;;;4952401;29;21248;-67
2022/05/12 10:43:59;;;;;;;3.80;2.73;;;21.70;75.80;;;;;;4957861;28;20476;-67
2022/05/12 10:47:08;;;;;;;3.57;3.00;;;21.80;75.40;;;;;;4933355;29;20513;-67
2022/05/12 10:50:16;;;;;;;4.03;2.70;;;21.80;75.20;;;;;;4937289;29;20994;-67
2022/05/12 10:53:07;;;;;;;2.90;2.70;;;21.80;75.10;;;;;;4954371;29;20449;-67
2022/05/12 10:55:36;;;;;;;3.70;3.20;;;21.80;75.20;;;;;;4926631;29;20486;-67
2022/05/12 10:58:26;;;;;;;3.00;2.23;;;21.80;75.40;;;;;;4954543;29;20793;-67
2022/05/12 11:01:12;;;;;;;3.30;2.80;;;21.90;75.00;;;;;;4954507;29;21021;-67
2022/05/12 11:03:50;;;;;;;3.53;2.90;;;21.90;74.30;;;;;;4937822;29;20485;-67
2022/05/12 11:06:20;;;;;;;5.47;3.10;;;21.90;74.10;;;;;;4937308;29;20508;-67
2022/05/12 11:08:59;;;;;;;3.20;3.00;;;21.90;74.50;;;;;;4937073;29;20474;-67
2022/05/12 11:11:34;;;;;;;3.57;3.27;;;22.00;74.50;;;;;;4957895;28;20903;-67
2022/05/12 11:14:31;;;;;;;3.73;3.33;;;22.00;73.70;;;;;;4962438;28;20455;-67
2022/05/12 11:17:17;;;;;;;2.60;2.40;;;22.00;73.80;;;;;;4953891;28;20480;-67
2022/05/12 11:19:48;;;;;;;3.60;2.90;;;22.00;73.50;;;;;;4957086;28;20450;-67
2022/05/12 11:22:41;;;;;;;3.80;2.80;;;22.00;73.60;;;;;;4936242;29;20482;-67
2022/05/12 11:25:14;;;;;;;2.97;2.67;;;22.10;73.90;;;;;;4937007;29;20404;-67
2022/05/12 11:29:41;;;;;;;5.80;3.07;;;22.10;73.70;;;;;;4955177;29;20502;-67
2022/05/12 11:30:54;;;;;;;2.90;2.63;;;22.10;73.50;;;;;;4939253;29;20936;-67
2022/05/12 11:33:28;;;;;;;4.13;2.60;;;22.10;73.40;;;;;;4954840;29;20447;-67
2022/05/12 11:35:57;;;;;;;3.80;3.10;;;22.10;73.40;;;;;;4957117;28;20472;-67
2022/05/12 11:38:37;;;;;;;3.83;2.80;;;22.20;73.50;;;;;;4939089;29;21107;-67
2022/05/12 11:41:20;;;;;;;3.73;2.77;;;22.20;73.50;;;;;;4951778;29;20415;-67
2022/05/12 11:46:57;;;;;;;2.73;2.53;;;22.20;73.30;;;;;;4933017;29;20830;-67
2022/05/12 11:49:45;;;;;;;4.00;2.87;;;22.30;72.50;;;;;;4937494;29;20459;-67
2022/05/12 11:52:31;;;;;;;4.03;2.73;;;22.30;72.30;;;;;;4939841;29;20458;-66
2022/05/12 11:54:59;;;;;;;3.73;3.00;;;22.30;72.60;;;;;;4955831;29;20457;-67
2022/05/12 11:57:32;;;;;;;2.87;2.67;;;22.30;72.30;;;;;;4955785;29;20791;-67
2022/05/12 12:00:00;;;;;;;2.60;2.40;;;22.30;72.30;;;;;;4938611;29;20494;-67
2022/05/12 12:02:28;;;;;;;3.03;2.50;;;22.40;72.50;;;;;;4955609;29;20421;-67
2022/05/12 12:04:58;;;;;;;4.60;2.60;;;22.40;72.80;;;;;;4954636;29;20439;-67
2022/05/12 12:07:35;;;;;;;2.60;2.40;;;22.40;73.10;;;;;;4937822;29;20451;-67
2022/05/12 12:10:04;;;;;;;2.53;2.30;;;22.40;72.10;;;;;;4937938;29;20461;-67
2022/05/12 12:12:42;;;;;;;4.53;2.60;;;22.40;71.80;;;;;;4937730;29;20687;-67
2022/05/12 12:15:28;;;;;;;3.47;2.40;;;22.50;71.50;;;;;;4969555;28;20469;-67
2022/05/12 12:18:28;;;;;;;4.30;2.57;;;22.50;71.40;;;;;;4938111;29;20443;-67
2022/05/12 12:20:58;;;;;;;4.07;2.50;;;22.50;71.40;;;;;;4955327;29;20430;-67
2022/05/12 12:23:30;;;;;;;3.40;2.60;;;22.50;71.50;;;;;;4938024;29;20475;-67
2022/05/12 12:26:01;;;;;;;4.00;2.60;;;22.50;71.20;;;;;;4938131;29;20415;-67
2022/05/12 12:28:44;;;;;;;2.77;2.57;;;22.60;70.90;;;;;;4955330;29;20465;-67
2022/05/12 12:31:24;;;;;;;3.13;2.30;;;22.60;70.70;;;;;;4938175;29;20451;-67
2022/05/12 12:34:17;;;;;;;2.73;2.50;;;22.60;70.10;;;;;;4955176;29;20426;-67
2022/05/12 12:36:59;;;;;;;5.77;2.67;;;22.70;70.40;;;;;;4936348;29;20510;-67
2022/05/12 12:39:44;;;;;;;2.93;2.33;;;22.70;70.30;;;;;;4935960;29;20440;-67
2022/05/12 12:42:31;;;;;;;4.93;2.57;;;22.70;70.50;;;;;;4938764;29;20463;-67
2022/05/12 12:45:19;;;;;;;3.47;2.63;;;22.70;70.10;;;;;;4969267;28;20433;-67
2022/05/12 12:48:13;;;;;;;3.43;2.67;;;22.70;70.00;;;;;;4930287;29;20811;-67
2022/05/12 12:50:52;;;;;;;4.07;2.87;;;22.70;69.70;;;;;;4969384;28;20782;-67
2022/05/12 12:56:30;;;;;;;3.03;2.33;;;22.80;69.30;;;;;;4953765;29;20964;-67
2022/05/12 12:56:32;;;;;;;3.30;2.60;;;22.80;68.50;;;;;;4950279;28;20517;-67
2022/05/12 12:59:26;;;;;;;3.50;2.00;;;22.80;67.80;;;;;;4935417;29;20450;-66
2022/05/12 13:01:54;;;;;;;3.00;2.37;;;22.80;67.70;;;;;;4918540;29;20438;-67
2022/05/12 13:04:35;;;;;;;2.40;2.20;;;22.90;67.50;;;;;;4937871;29;20475;-67
2022/05/12 13:07:10;;;;;;;2.93;2.50;;;22.90;67.60;;;;;;4953319;29;20423;-67
2022/05/12 13:09:44;;;;;;;2.47;2.27;;;22.90;67.60;;;;;;4953599;28;20481;-69
2022/05/12 13:12:16;;;;;;;2.77;2.40;;;23.00;67.40;;;;;;4945908;28;20438;-68
2022/05/12 13:14:44;;;;;;;3.80;1.93;;;23.00;67.30;;;;;;4920022;29;20462;-68
2022/05/12 13:17:31;;;;;;;3.30;2.30;;;23.00;66.90;;;;;;4937349;29;20463;-68
2022/05/12 13:20:01;;;;;;;3.23;2.40;;;23.00;66.40;;;;;;4936652;29;20439;-69
2022/05/12 13:22:50;;;;;;;2.90;2.43;;;23.00;66.20;;;;;;4936863;29;20781;-68
2022/05/12 13:25:24;;;;;;;2.53;2.30;;;23.10;66.30;;;;;;4936686;29;20462;-68
2022/05/12 13:27:51;;;;;;;3.03;2.40;;;23.10;66.40;;;;;;4926438;29;20429;-68
2022/05/12 13:30:28;;;;;;;2.80;2.07;;;23.10;66.50;;;;;;4952937;28;21011;-68
2022/05/12 13:33:04;;;;;;;4.03;2.47;;;23.10;67.20;;;;;;4926450;29;20516;-69